Time;durP1;ratioP1;P1;durP2;ratioP2;P2;SDS_P1;SDS_P2;PMS_P1;PMS_P2;Temp;Humidity;BMP_temperature;BMP_pressure;BME280_temperature;BME280_humidity;BME280_pressure;Samples;Min_cycle;Max_cycle;Signal;HPM_P1;HPM_P2
2023/06/26 00:00:01;;;;;;;9.25;6.07;;;22.20;99.90;;;-144.05;50.87;56880.69;5021079;28;20024;-84
2023/06/26 00:02:26;;;;;;;9.38;6.57;;;22.10;99.90;;;-144.05;51.11;56880.69;5039574;28;20025;-86
2023/06/26 00:04:53;;;;;;;8.35;5.78;;;22.10;99.90;;;-144.05;50.92;56876.44;5037220;28;20052;-87
2023/06/26 00:07:20;;;;;;;7.80;6.10;;;22.00;99.90;;;-144.05;50.92;56838.22;5019581;28;20029;-86
2023/06/26 00:09:46;;;;;;;9.25;5.20;;;22.00;99.90;;;-144.05;50.96;56887.06;5036607;28;20033;-84
2023/06/26 00:12:12;;;;;;;10.93;6.05;;;21.90;99.90;;;-144.05;50.56;56865.81;5019712;28;20090;-86
2023/06/26 00:14:37;;;;;;;7.07;5.10;;;21.90;99.90;;;-144.05;50.29;56857.34;5019909;28;20095;-87
2023/06/26 00:17:04;;;;;;;7.63;5.70;;;21.90;99.90;;;-144.05;49.99;56870.06;5020146;28;20190;-84
2023/06/26 00:19:30;;;;;;;6.93;5.40;;;21.90;99.90;;;-144.05;49.54;56887.06;5039518;28;20029;-82
2023/06/26 00:21:55;;;;;;;7.50;5.28;;;22.00;99.90;;;-144.05;49.03;56887.06;5018739;28;20358;-87
2023/06/26 00:24:21;;;;;;;7.10;5.50;;;22.00;99.90;;;-144.05;48.37;56906.19;5018136;28;20053;-86
2023/06/26 00:26:48;;;;;;;8.05;5.70;;;22.10;99.90;;;-144.05;48.07;56863.69;5002417;28;20143;-86
2023/06/26 00:29:14;;;;;;;7.88;5.85;;;22.30;99.90;;;-144.05;47.67;56887.06;5016299;28;20037;-85
2023/06/26 00:31:40;;;;;;;6.53;5.28;;;22.30;99.90;;;-144.05;47.81;56882.81;5016640;28;20033;-84
2023/06/26 00:34:06;;;;;;;11.15;6.35;;;22.30;99.90;;;-144.05;47.12;56867.94;4996846;28;20026;-85
2023/06/26 00:36:32;;;;;;;6.75;5.85;;;22.40;99.90;;;-144.05;46.50;56887.06;4997113;28;20743;-86
2023/06/26 00:38:59;;;;;;;8.23;5.63;;;22.50;99.90;;;-144.05;46.17;56897.69;4996950;28;20629;-85
2023/06/26 00:41:25;;;;;;;6.45;5.45;;;22.60;99.90;;;-144.05;45.44;56882.81;4997731;28;20026;-84
2023/06/26 00:43:51;;;;;;;7.53;5.70;;;22.70;99.90;;;-144.05;45.13;56895.56;5013419;28;20116;-85
2023/06/26 00:46:17;;;;;;;8.48;5.90;;;22.80;99.90;;;-144.05;45.02;56891.31;5014262;28;20083;-88
2023/06/26 00:48:47;;;;;;;6.93;5.32;;;22.80;99.90;;;-144.05;44.63;56853.09;4996851;28;20116;-83
2023/06/26 00:51:14;;;;;;;6.25;5.07;;;22.90;99.90;;;-144.05;44.31;56891.31;4996372;28;20022;-83
2023/06/26 00:53:42;;;;;;;6.72;5.25;;;22.90;99.90;;;-144.05;43.58;56887.06;4996197;28;20030;-84
2023/06/26 00:56:09;;;;;;;6.47;4.88;;;23.00;99.90;;;-144.05;43.56;56891.31;4995470;28;20513;-82
2023/06/26 00:58:35;;;;;;;7.68;5.70;;;23.00;99.90;;;-144.05;43.37;56893.44;4995921;28;20136;-86
2023/06/26 01:01:02;;;;;;;9.18;4.95;;;23.10;99.90;;;-144.05;43.00;56897.69;5013363;28;20103;-84
2023/06/26 01:03:28;;;;;;;5.80;4.78;;;23.10;99.90;;;-144.05;42.79;56914.69;4995178;28;20130;-85
2023/06/26 01:05:59;;;;;;;6.90;4.80;;;23.10;99.90;;;-144.05;42.88;56893.44;5012206;28;20041;-85
2023/06/26 01:08:27;;;;;;;6.70;5.40;;;23.10;99.90;;;-144.05;42.96;56901.94;5013323;28;20565;-85
2023/06/26 01:10:53;;;;;;;6.18;5.18;;;23.10;99.90;;;-144.05;42.75;56880.69;4994990;28;20060;-86
2023/06/26 01:13:21;;;;;;;6.40;5.25;;;23.10;99.90;;;-144.05;42.57;56895.56;5012248;28;20033;-83
2023/06/26 01:15:48;;;;;;;8.40;5.22;;;23.20;99.90;;;-144.05;42.67;56923.19;5013009;28;20092;-84
2023/06/26 01:18:16;;;;;;;6.13;5.32;;;23.10;99.90;;;-144.05;42.53;56906.19;4994626;28;20517;-84
2023/06/26 01:20:44;;;;;;;6.15;4.93;;;23.10;99.90;;;-144.05;42.58;56906.19;4994785;28;20030;-85
2023/06/26 01:23:31;;;;;;;8.15;5.20;;;23.10;99.90;;;-144.05;42.51;56904.06;4998613;28;20026;-86
2023/06/26 01:26:22;;;;;;;6.78;5.20;;;23.00;99.90;;;-144.05;42.32;56921.06;5024557;28;20030;-83
2023/06/26 01:28:53;;;;;;;6.63;5.88;;;23.10;99.90;;;-144.05;42.65;56904.06;5015507;28;20038;-85
2023/06/26 01:31:20;;;;;;;6.55;5.10;;;23.00;99.90;;;-144.05;42.70;56901.94;5035417;28;20336;-85
2023/06/26 01:33:47;;;;;;;8.35;5.40;;;23.00;99.90;;;-144.05;43.07;56893.44;5017441;28;20029;-85
2023/06/26 01:36:13;;;;;;;7.63;5.22;;;22.90;99.90;;;-144.05;42.94;56895.56;5017080;28;20116;-85
2023/06/26 01:38:39;;;;;;;6.43;5.15;;;22.90;99.90;;;-144.05;43.38;56887.06;5017098;28;20033;-85
2023/06/26 01:41:06;;;;;;;6.03;5.13;;;22.80;99.90;;;-144.05;43.25;56884.94;5017288;28;20029;-85
2023/06/26 01:44:05;;;;;;;7.00;5.70;;;22.70;99.90;;;-144.05;43.40;56891.31;5035395;28;20021;-86
2023/06/26 01:47:04;;;;;;;7.03;5.20;;;22.70;99.90;;;-144.05;43.60;56912.56;5035755;28;20029;-85
2023/06/26 01:50:04;;;;;;;7.03;5.50;;;22.60;99.90;;;-144.05;43.67;56887.06;5035340;28;20422;-84
2023/06/26 01:53:11;;;;;;;6.25;5.32;;;22.60;99.90;;;-144.05;43.56;56918.94;5035426;28;20040;-83
2023/06/26 01:55:52;;;;;;;7.05;5.55;;;22.60;99.90;;;-144.05;43.48;56887.06;5035812;28;20037;-83
2023/06/26 01:58:25;;;;;;;7.38;5.70;;;22.60;99.90;;;-144.05;43.54;56884.94;5016941;28;20033;-83
2023/06/26 02:00:50;;;;;;;8.35;5.60;;;22.60;99.90;;;-144.05;43.30;56904.06;5016978;28;20018;-83
2023/06/26 02:03:16;;;;;;;6.63;4.63;;;22.60;99.90;;;-144.05;43.18;56882.81;5039873;28;20036;-83
2023/06/26 02:05:42;;;;;;;7.13;5.00;;;22.50;99.90;;;-144.05;43.20;56880.69;5049633;28;20034;-86
2023/06/26 02:08:15;;;;;;;8.70;5.13;;;22.50;99.90;;;-144.05;43.18;56882.81;5043224;28;20029;-85
2023/06/26 02:10:41;;;;;;;6.63;5.43;;;22.50;99.90;;;-144.05;43.58;56865.81;5024332;28;20183;-88
2023/06/26 02:13:06;;;;;;;5.43;4.82;;;22.50;99.90;;;-144.05;43.73;56884.94;5041077;28;20069;-83
2023/06/26 02:15:32;;;;;;;6.85;5.40;;;22.50;99.90;;;-144.05;43.86;56897.69;5022553;28;20045;-85
2023/06/26 02:17:58;;;;;;;7.93;5.57;;;22.30;99.90;;;-144.05;43.94;56889.19;5040575;28;20029;-84
2023/06/26 02:20:24;;;;;;;7.18;5.47;;;22.30;99.90;;;-144.05;44.29;56867.94;5021325;28;20117;-85
2023/06/26 02:22:50;;;;;;;6.60;5.18;;;22.20;99.90;;;-144.05;44.02;56891.31;5021007;28;20030;-85
2023/06/26 02:25:18;;;;;;;6.55;5.60;;;22.20;99.90;;;-144.05;43.92;56878.56;5020637;28;20030;-87
2023/06/26 02:27:43;;;;;;;7.95;5.38;;;22.20;99.90;;;-144.05;43.92;56908.31;5019831;28;20364;-83
2023/06/26 02:30:10;;;;;;;6.72;5.00;;;22.20;99.90;;;-144.05;43.67;56876.44;5037423;28;20033;-86
2023/06/26 02:32:36;;;;;;;6.70;5.45;;;22.20;99.90;;;-144.05;43.72;56893.44;5036682;28;20119;-84
2023/06/26 02:35:02;;;;;;;6.65;5.10;;;22.30;99.90;;;-144.05;43.82;56870.06;5037026;28;20049;-86
2023/06/26 02:37:28;;;;;;;5.93;4.97;;;22.20;99.90;;;-144.05;43.70;56897.69;5018146;28;20029;-83
2023/06/26 02:39:54;;;;;;;7.32;5.70;;;22.20;99.90;;;-144.05;43.64;56878.56;5017364;28;20021;-84
2023/06/26 02:42:19;;;;;;;6.82;4.70;;;22.20;99.90;;;-144.05;43.58;56891.31;5036028;28;20032;-84
2023/06/26 02:44:45;;;;;;;7.45;5.53;;;22.10;99.90;;;-144.05;43.74;56901.94;5017864;28;20124;-85
2023/06/26 02:47:11;;;;;;;6.05;5.28;;;22.10;99.90;;;-144.05;43.86;56878.56;5017064;28;20437;-85
2023/06/26 02:49:37;;;;;;;5.63;4.75;;;22.10;99.90;;;-144.05;44.34;56878.56;5017221;28;20091;-83
2023/06/26 02:52:03;;;;;;;6.45;5.10;;;22.00;99.90;;;-144.05;44.30;56870.06;5017569;28;20030;-87
2023/06/26 02:54:29;;;;;;;7.93;4.90;;;21.90;99.90;;;-144.05;44.23;56880.69;5035103;28;20473;-86
2023/06/26 02:56:55;;;;;;;7.35;6.03;;;21.90;99.90;;;-144.05;44.07;56870.06;5016762;28;20063;-84
2023/06/26 02:59:20;;;;;;;7.28;5.25;;;21.90;99.90;;;-144.05;44.29;56882.81;5015576;28;20121;-83
2023/06/26 03:01:46;;;;;;;6.00;4.75;;;21.80;99.90;;;-144.05;44.12;56874.31;5017132;28;20057;-86
2023/06/26 03:04:12;;;;;;;6.90;5.32;;;21.90;99.90;;;-144.05;44.25;56887.06;5035498;28;20600;-86
2023/06/26 03:06:38;;;;;;;8.18;6.03;;;21.80;99.90;;;-144.05;44.49;56889.19;5035702;28;20062;-84
2023/06/26 03:09:04;;;;;;;5.75;5.00;;;21.80;99.90;;;-144.05;44.30;56884.94;5016753;28;20088;-85
2023/06/26 03:11:29;;;;;;;8.90;5.40;;;21.80;99.90;;;-144.05;44.39;56872.19;5017621;28;20492;-84
2023/06/26 03:13:55;;;;;;;12.35;5.60;;;21.80;99.90;;;-144.05;44.49;56884.94;5034646;28;20436;-86
2023/06/26 03:16:21;;;;;;;9.68;5.72;;;21.80;99.90;;;-144.05;44.77;56863.69;5022021;28;20026;-85
2023/06/26 03:18:47;;;;;;;7.22;5.35;;;21.70;99.90;;;-144.05;44.97;56889.19;5022679;28;20030;-86
2023/06/26 03:21:13;;;;;;;8.95;5.43;;;21.60;99.90;;;-144.05;45.35;56895.56;5039497;28;20014;-84
2023/06/26 03:23:39;;;;;;;10.10;5.47;;;21.50;99.90;;;-144.05;45.37;56861.56;5039320;28;20033;-85
2023/06/26 03:26:05;;;;;;;7.03;5.78;;;21.50;99.90;;;-144.05;45.28;56893.44;5021750;28;20071;-83
2023/06/26 03:28:31;;;;;;;7.18;4.97;;;21.50;99.90;;;-144.05;45.19;56878.56;5021633;28;20037;-86
2023/06/26 03:30:57;;;;;;;8.15;5.60;;;21.50;99.90;;;-144.05;45.24;56870.06;5039595;28;20037;-85
2023/06/26 03:33:23;;;;;;;7.03;4.95;;;21.50;99.90;;;-144.05;45.27;56887.06;5040120;28;20061;-87
2023/06/26 03:35:49;;;;;;;6.35;5.13;;;21.50;99.90;;;-144.05;45.09;56867.94;5039209;28;20067;-84
2023/06/26 03:38:15;;;;;;;7.25;5.15;;;21.60;99.90;;;-144.05;44.91;56874.31;5020537;28;20037;-85
2023/06/26 03:40:41;;;;;;;8.77;5.03;;;21.70;99.90;;;-144.05;44.88;56887.06;5018797;28;20039;-84
2023/06/26 03:43:07;;;;;;;7.65;5.13;;;21.70;99.90;;;-144.05;44.91;56882.81;5018731;28;20022;-86
2023/06/26 03:45:33;;;;;;;6.78;5.22;;;21.80;99.90;;;-144.05;44.89;56901.94;5036783;28;20033;-84
2023/06/26 03:47:59;;;;;;;6.97;4.88;;;21.80;99.90;;;-144.05;44.94;56891.31;5018526;28;20128;-84
2023/06/26 03:50:24;;;;;;;6.38;5.22;;;21.80;99.90;;;-144.05;44.90;56878.56;5019722;28;20033;-86
2023/06/26 03:52:51;;;;;;;6.68;5.20;;;21.80;99.90;;;-144.05;45.11;56887.06;5019734;28;20156;-84
2023/06/26 03:55:17;;;;;;;7.38;5.43;;;21.80;99.90;;;-144.05;45.32;56893.44;5020061;28;20539;-86
2023/06/26 03:57:43;;;;;;;5.75;4.82;;;21.70;99.90;;;-144.05;45.63;56859.47;5038254;28;20040;-86
2023/06/26 04:00:12;;;;;;;7.50;5.82;;;21.70;99.90;;;-144.05;45.90;56882.81;5020401;28;20029;-83
2023/06/26 04:02:38;;;;;;;7.50;5.25;;;21.60;99.90;;;-144.05;46.11;56899.81;5034411;28;20030;-82
2023/06/26 04:05:05;;;;;;;6.43;5.25;;;21.60;99.90;;;-144.05;46.42;56878.56;5019049;28;20030;-84
2023/06/26 04:07:31;;;;;;;8.15;5.03;;;21.60;99.90;;;-144.05;46.04;56887.06;5018295;28;20033;-84
2023/06/26 04:09:58;;;;;;;6.82;5.15;;;21.60;99.90;;;-144.05;46.23;56876.44;5018705;28;20087;-84
2023/06/26 04:12:24;;;;;;;6.13;5.03;;;21.60;99.90;;;-144.05;46.57;56884.94;5034954;28;20076;-83
2023/06/26 04:14:50;;;;;;;7.47;5.95;;;21.70;99.90;;;-144.05;46.49;56887.06;5034503;28;20030;-86
2023/06/26 04:17:15;;;;;;;6.93;5.13;;;21.80;99.90;;;-144.05;46.78;56872.19;5019567;28;20022;-85
2023/06/26 04:19:41;;;;;;;6.75;5.50;;;21.80;99.90;;;-144.05;47.01;56876.44;5039006;28;20059;-80
2023/06/26 04:22:07;;;;;;;10.07;6.05;;;21.80;99.90;;;-144.05;47.13;56895.56;5048169;28;20017;-80
2023/06/26 04:24:33;;;;;;;9.77;6.05;;;21.90;99.90;;;-144.05;47.19;56906.19;5040611;28;20037;-84
2023/06/26 04:26:59;;;;;;;7.75;5.15;;;21.90;99.90;;;-144.05;47.51;56867.94;5016682;28;20108;-81
2023/06/26 04:29:27;;;;;;;9.15;5.45;;;21.90;99.90;;;-144.05;47.66;56912.56;5041001;28;20040;-81
2023/06/26 04:31:57;;;;;;;9.00;5.30;;;21.80;99.90;;;-144.05;47.91;56867.94;5040018;28;20025;-79
2023/06/26 04:34:26;;;;;;;8.95;5.78;;;21.90;99.90;;;-144.05;48.16;56887.06;5037607;28;20029;-80
2023/06/26 04:36:52;;;;;;;7.88;5.43;;;21.90;99.90;;;-144.05;48.25;56891.31;5036107;28;20053;-81
2023/06/26 04:39:18;;;;;;;9.10;5.82;;;21.90;99.90;;;-144.05;48.56;56878.56;5016624;28;20029;-83
2023/06/26 04:41:45;;;;;;;6.57;5.10;;;21.90;99.90;;;-144.05;48.89;56878.56;5035453;28;20029;-84
2023/06/26 04:44:12;;;;;;;8.57;5.30;;;21.90;99.90;;;-144.05;48.77;56887.06;5019391;28;20692;-85
2023/06/26 04:46:41;;;;;;;7.22;5.03;;;22.00;99.90;;;-144.05;48.85;56901.94;5037083;28;20030;-88
2023/06/26 04:49:10;;;;;;;9.65;5.93;;;22.00;99.90;;;-144.05;49.15;56880.69;5021109;28;20462;-85
2023/06/26 04:51:43;;;;;;;9.18;5.68;;;22.00;99.90;;;-144.05;49.47;56895.56;5041688;28;20370;-89
2023/06/26 04:54:11;;;;;;;9.52;5.85;;;22.00;99.90;;;-144.05;49.30;56884.94;5024160;28;20045;-84
2023/06/26 04:56:39;;;;;;;6.78;5.22;;;22.10;99.90;;;-144.05;49.76;56878.56;5024385;28;20051;-84
2023/06/26 04:59:05;;;;;;;8.30;6.38;;;22.10;99.90;;;-144.05;49.47;56887.06;5025846;28;20025;-84
2023/06/26 05:01:32;;;;;;;9.85;6.30;;;22.10;99.90;;;-144.05;49.66;56891.31;5041766;28;20056;-82
2023/06/26 05:03:58;;;;;;;7.28;5.85;;;22.10;99.90;;;-144.05;49.83;56891.31;5036389;28;20021;-84
2023/06/26 05:06:25;;;;;;;9.02;5.57;;;22.10;99.90;;;-144.05;49.79;56884.94;5018792;28;20029;-87
2023/06/26 05:08:50;;;;;;;12.48;6.07;;;22.20;99.90;;;-144.05;49.47;56891.31;5019452;28;20473;-84
2023/06/26 05:11:16;;;;;;;8.77;5.70;;;22.20;99.90;;;-144.05;49.32;56887.06;5018721;28;20034;-85
2023/06/26 05:13:42;;;;;;;9.02;5.80;;;22.30;99.90;;;-144.05;49.56;56878.56;5037590;28;20030;-83
2023/06/26 05:16:09;;;;;;;8.13;5.57;;;22.40;99.90;;;-144.05;49.06;56891.31;5038362;28;20120;-83
2023/06/26 05:18:36;;;;;;;9.50;6.20;;;22.50;99.90;;;-144.05;49.01;56882.81;5039539;28;20089;-83
2023/06/26 05:21:03;;;;;;;10.95;5.93;;;22.50;99.90;;;-144.05;48.78;56908.31;5038572;28;20053;-85
2023/06/26 05:23:34;;;;;;;9.20;5.75;;;22.50;99.90;;;-144.05;48.57;56874.31;5038535;28;20167;-82
2023/06/26 05:26:03;;;;;;;8.80;5.28;;;22.60;99.90;;;-144.05;48.73;56895.56;5021459;28;20777;-86
2023/06/26 05:28:33;;;;;;;9.35;5.70;;;22.70;99.90;;;-144.05;48.70;56914.69;5022755;28;20030;-83
2023/06/26 05:30:59;;;;;;;10.40;6.03;;;22.50;99.90;;;-144.05;49.64;56891.31;5022760;28;20026;-85
2023/06/26 05:33:28;;;;;;;6.75;5.55;;;22.40;99.90;;;-144.05;49.86;56880.69;5021856;28;20037;-85
2023/06/26 05:35:55;;;;;;;10.10;5.78;;;22.30;99.90;;;-144.05;50.00;56901.94;5021526;28;20037;-84
2023/06/26 05:38:21;;;;;;;6.65;5.30;;;22.40;99.90;;;-144.05;49.81;56929.53;5039453;28;20095;-84
2023/06/26 05:40:48;;;;;;;10.30;5.70;;;22.30;99.90;;;-144.05;49.66;56897.69;5041126;28;20022;-79
2023/06/26 05:43:15;;;;;;;9.65;5.88;;;22.40;99.90;;;-144.05;50.55;56887.06;5043154;28;20040;-81
2023/06/26 05:45:41;;;;;;;7.28;4.80;;;22.20;99.90;;;-144.05;50.36;56861.56;5047159;28;20026;-79
2023/06/26 05:48:07;;;;;;;10.57;5.95;;;22.30;99.90;;;-144.05;49.97;56912.56;5046357;28;20034;-79
2023/06/26 05:50:34;;;;;;;10.32;5.28;;;22.40;99.90;;;-144.05;49.69;56887.06;5044655;28;20048;-78
2023/06/26 05:53:03;;;;;;;7.72;5.63;;;22.70;99.90;;;-144.05;48.92;56921.06;5027906;28;20057;-79
2023/06/26 05:55:29;;;;;;;7.50;5.97;;;23.00;99.90;;;-144.05;48.15;56895.56;5025256;28;20029;-83
2023/06/26 05:57:59;;;;;;;8.50;5.95;;;23.20;99.90;;;-144.05;48.46;56929.53;5043144;28;20025;-78
2023/06/26 06:00:27;;;;;;;8.38;5.70;;;23.30;99.90;;;-144.05;47.98;56931.66;5050608;28;20148;-78
2023/06/26 06:02:54;;;;;;;10.82;6.00;;;23.40;99.90;;;-144.05;47.45;56927.41;5030320;28;20025;-82
2023/06/26 06:05:22;;;;;;;11.48;6.38;;;23.60;99.90;;;-144.05;47.38;56921.06;5031757;28;20060;-79
2023/06/26 06:07:50;;;;;;;8.88;5.90;;;23.70;99.90;;;-144.05;47.64;56921.06;5034301;28;20124;-81
2023/06/26 06:10:16;;;;;;;9.38;5.65;;;23.80;99.90;;;-144.05;48.18;56925.28;5052286;28;20031;-83
2023/06/26 06:12:43;;;;;;;8.85;6.53;;;23.70;99.90;;;-144.05;47.02;56955.03;5033747;28;20025;-81
2023/06/26 06:15:09;;;;;;;8.35;5.50;;;23.90;99.90;;;-144.05;46.43;56946.53;5034023;28;20041;-82
2023/06/26 06:17:35;;;;;;;10.02;6.15;;;24.20;99.90;;;-144.05;46.88;56938.03;5033415;28;20333;-82
2023/06/26 06:20:01;;;;;;;10.93;6.55;;;24.20;99.90;;;-144.05;46.83;56955.03;5047948;28;20026;-83
2023/06/26 06:22:27;;;;;;;8.65;5.85;;;23.90;99.90;;;-144.05;48.35;56921.06;5043698;28;20048;-85
2023/06/26 06:24:52;;;;;;;11.55;7.07;;;23.50;99.90;;;-144.05;50.12;56908.31;5023000;28;20253;-86
2023/06/26 06:27:18;;;;;;;11.13;6.90;;;23.10;99.90;;;-144.05;51.21;56887.06;5039341;28;20037;-84
2023/06/26 06:29:44;;;;;;;10.35;7.03;;;22.80;99.90;;;-144.05;51.42;56901.94;5023078;28;20033;-83
2023/06/26 06:32:10;;;;;;;8.38;6.30;;;22.70;99.90;;;-144.05;51.67;56901.94;5023931;28;20025;-83
2023/06/26 06:34:36;;;;;;;11.25;6.25;;;22.90;99.90;;;-144.05;50.48;56908.31;5023650;28;20029;-83
2023/06/26 06:37:03;;;;;;;12.38;6.97;;;23.20;99.90;;;-144.05;49.52;56904.06;5038120;28;20029;-84
2023/06/26 06:39:29;;;;;;;11.93;6.72;;;23.40;99.90;;;-144.05;48.82;56931.66;5051774;28;20042;-80
2023/06/26 06:41:55;;;;;;;11.85;6.43;;;23.60;99.90;;;-144.05;48.32;56931.66;5044521;28;20044;-87
2023/06/26 06:44:22;;;;;;;11.93;6.00;;;23.70;99.90;;;-144.05;48.62;56942.28;5022997;28;20034;-85
2023/06/26 06:46:48;;;;;;;11.60;6.15;;;24.00;99.90;;;-144.05;46.83;56946.53;5041309;28;20021;-84
2023/06/26 06:49:14;;;;;;;9.93;6.18;;;24.30;99.90;;;-144.05;46.31;56914.69;5039546;28;20022;-85
2023/06/26 06:51:40;;;;;;;11.77;5.78;;;24.30;99.90;;;-144.05;46.13;56944.41;5039399;28;20590;-87
2023/06/26 06:54:05;;;;;;;11.60;5.57;;;24.30;99.90;;;-144.05;46.14;56952.91;5021677;28;20042;-83
2023/06/26 06:56:31;;;;;;;11.63;5.70;;;24.30;99.90;;;-144.05;46.33;56944.41;5019620;28;20132;-84
2023/06/26 06:58:57;;;;;;;13.05;5.10;;;24.20;99.90;;;-144.05;45.78;56938.03;5021433;28;20101;-83
2023/06/26 07:01:23;;;;;;;8.27;5.30;;;24.40;99.90;;;-144.05;45.68;56948.66;5021209;28;20044;-84
2023/06/26 07:03:49;;;;;;;11.70;6.20;;;24.50;99.90;;;-144.05;44.79;56952.91;5040517;28;20040;-84
2023/06/26 07:06:15;;;;;;;7.70;4.80;;;24.80;99.90;;;-144.05;44.35;56967.78;5022654;28;20030;-85
2023/06/26 07:08:41;;;;;;;12.63;5.25;;;25.30;99.90;;;-144.05;43.11;56986.91;5039906;28;20034;-81
2023/06/26 07:11:06;;;;;;;11.02;4.72;;;25.60;99.90;;;-144.05;43.34;56984.78;5021754;28;20034;-83
2023/06/26 07:13:32;;;;;;;10.73;4.82;;;25.60;99.90;;;-144.05;44.17;56972.03;5022115;28;20033;-86
2023/06/26 07:15:58;;;;;;;10.70;4.80;;;25.70;99.90;;;-144.05;42.53;57012.38;5023834;28;20030;-84
2023/06/26 07:18:24;;;;;;;10.15;4.47;;;25.70;99.90;;;-144.05;41.90;56978.41;5019919;28;20179;-86
2023/06/26 07:20:50;;;;;;;9.70;4.70;;;25.80;99.90;;;-144.05;43.13;56989.00;5019621;28;20025;-85
2023/06/26 07:23:17;;;;;;;10.48;5.63;;;25.40;99.90;;;-144.05;44.97;56950.78;5038012;28;20057;-82
2023/06/26 07:25:43;;;;;;;11.00;5.22;;;24.70;99.90;;;-144.05;46.23;56933.78;5037986;28;20056;-82
2023/06/26 07:28:13;;;;;;;8.80;4.90;;;24.00;99.90;;;-144.05;46.66;56938.03;5037835;28;20067;-81
2023/06/26 07:30:39;;;;;;;13.68;5.53;;;24.10;99.90;;;-144.05;45.38;56963.53;5019245;28;20493;-86
2023/06/26 07:33:05;;;;;;;14.27;5.80;;;24.40;99.90;;;-144.05;44.89;56959.28;5020729;28;20037;-81
2023/06/26 07:35:31;;;;;;;12.05;5.70;;;24.70;99.90;;;-144.05;44.06;56965.66;5019815;28;20036;-86
2023/06/26 07:37:57;;;;;;;11.07;4.97;;;25.00;99.90;;;-144.05;43.40;56999.63;5037781;28;20438;-83
2023/06/26 07:40:23;;;;;;;17.05;6.25;;;25.50;99.90;;;-144.05;43.44;56961.41;5018422;28;20137;-84
2023/06/26 07:42:50;;;;;;;14.73;6.55;;;25.20;99.90;;;-144.05;44.80;56942.28;5037456;28;20108;-87
2023/06/26 07:45:16;;;;;;;13.52;5.68;;;25.00;99.90;;;-144.05;44.65;56978.41;5037019;28;20018;-82
2023/06/26 07:47:42;;;;;;;10.00;6.03;;;24.80;99.90;;;-144.05;44.71;56950.78;5020497;28;20484;-86
2023/06/26 07:50:08;;;;;;;11.65;5.53;;;24.80;99.90;;;-144.05;44.66;56993.25;5017820;28;20040;-81
2023/06/26 07:52:34;;;;;;;12.07;5.78;;;25.10;99.90;;;-144.05;43.63;56965.66;5035887;28;20053;-82
2023/06/26 07:55:00;;;;;;;12.00;5.65;;;25.40;99.90;;;-144.05;42.76;57018.75;5037235;28;20049;-84
2023/06/26 07:57:26;;;;;;;11.02;5.88;;;25.60;99.90;;;-144.05;43.77;56961.41;5037952;28;20516;-83
2023/06/26 07:59:52;;;;;;;15.60;6.68;;;25.40;99.90;;;-144.05;43.96;56969.91;5040906;28;20021;-82
2023/06/26 08:02:18;;;;;;;12.10;6.03;;;25.40;99.90;;;-144.05;42.82;56976.28;5044344;28;20029;-84
2023/06/26 08:04:44;;;;;;;17.10;6.72;;;25.30;99.90;;;-144.05;42.96;56984.78;5021180;28;20029;-83
2023/06/26 08:07:10;;;;;;;10.75;5.97;;;25.60;99.90;;;-144.05;42.10;56993.25;5021109;28;20041;-83
2023/06/26 08:09:37;;;;;;;15.43;5.75;;;25.90;99.90;;;-144.05;41.64;57010.25;5021113;28;20092;-82
2023/06/26 08:12:03;;;;;;;14.40;7.10;;;26.40;99.90;;;-144.05;40.59;57018.75;5039714;28;20427;-81
2023/06/26 08:14:29;;;;;;;11.85;5.55;;;26.80;99.90;;;-144.05;41.31;56986.91;5023033;28;20037;-83
2023/06/26 08:16:55;;;;;;;11.73;6.15;;;26.40;99.90;;;-144.05;42.64;57029.38;5021537;28;20034;-82
2023/06/26 08:19:21;;;;;;;12.75;6.38;;;26.20;99.90;;;-144.05;42.88;56978.41;5039101;28;20117;-79
2023/06/26 08:21:47;;;;;;;11.77;6.68;;;26.00;99.90;;;-144.05;43.83;56978.41;5021050;28;20049;-79
2023/06/26 08:24:16;;;;;;;15.48;7.20;;;25.60;99.90;;;-144.05;42.94;56993.25;5025233;28;20025;-83
2023/06/26 08:26:44;;;;;;;10.57;6.65;;;25.90;99.90;;;-144.05;43.18;56989.00;5026669;28;20481;-81
2023/06/26 08:29:11;;;;;;;12.77;7.25;;;25.60;99.90;;;-144.05;43.88;56969.91;5040772;28;20037;-83
2023/06/26 08:31:39;;;;;;;14.57;7.80;;;25.30;99.90;;;-144.05;45.42;56978.41;5038750;28;20079;-83
2023/06/26 08:34:07;;;;;;;10.77;6.35;;;24.90;99.90;;;-144.05;46.61;56933.78;5022394;28;20026;-82
2023/06/26 08:36:33;;;;;;;10.68;5.32;;;24.50;99.90;;;-144.05;46.42;56957.16;5023316;28;20030;-83
2023/06/26 08:38:59;;;;;;;11.57;6.78;;;24.50;99.90;;;-144.05;46.64;56938.03;5022983;28;20120;-83
2023/06/26 08:41:25;;;;;;;9.05;6.10;;;24.50;99.90;;;-144.05;46.78;56967.78;5022837;28;20025;-80
2023/06/26 08:43:52;;;;;;;12.02;7.88;;;24.70;99.90;;;-144.05;45.10;56959.28;5021985;28;20448;-84
2023/06/26 08:46:19;;;;;;;14.00;7.20;;;24.60;99.90;;;-144.05;46.30;56944.41;5018471;28;20030;-82
2023/06/26 08:48:57;;;;;;;13.60;8.45;;;24.30;99.90;;;-144.05;47.44;56946.53;5035544;28;20033;-86
2023/06/26 08:51:28;;;;;;;14.82;9.55;;;24.10;99.90;;;-144.05;47.69;56933.78;5018081;28;20037;-83
2023/06/26 08:54:11;;;;;;;19.35;9.25;;;24.00;99.90;;;-144.05;47.63;56946.53;5036692;28;20633;-85
2023/06/26 08:56:47;;;;;;;13.77;8.55;;;24.40;99.90;;;-144.05;46.43;56957.16;5029487;28;20064;-82
2023/06/26 08:59:14;;;;;;;14.32;8.65;;;24.70;99.90;;;-144.05;46.00;56950.78;5041331;28;20042;-83
2023/06/26 09:01:41;;;;;;;14.32;7.43;;;24.80;99.90;;;-144.05;45.35;56980.53;5021444;28;20086;-86
2023/06/26 09:04:07;;;;;;;13.13;7.93;;;25.50;99.90;;;-144.05;43.53;56989.00;5021840;28;20034;-83
2023/06/26 09:06:34;;;;;;;17.13;9.52;;;25.70;99.90;;;-144.05;43.52;57027.25;5042990;28;20033;-81
2023/06/26 09:08:59;;;;;;;15.85;12.07;;;26.20;99.90;;;-144.05;41.67;57035.75;5039415;28;20047;-85
2023/06/26 09:11:25;;;;;;;22.77;12.70;;;26.50;99.90;;;-144.05;42.38;57010.25;5022515;28;20045;-85
2023/06/26 09:13:52;;;;;;;18.77;11.82;;;26.30;99.90;;;-144.05;41.68;57018.75;5022214;28;20037;-85
2023/06/26 09:16:24;;;;;;;13.30;9.55;;;26.60;99.90;;;-144.05;40.97;57014.50;5019824;28;20064;-86
2023/06/26 09:18:52;;;;;;;18.42;10.02;;;26.70;99.90;;;-144.05;41.59;57025.13;5037611;28;20182;-82
2023/06/26 09:21:18;;;;;;;14.68;8.35;;;26.10;99.90;;;-144.05;42.71;57003.88;5020583;28;20025;-85
2023/06/26 09:23:45;;;;;;;15.18;6.25;;;25.60;99.90;;;-144.05;43.72;56995.38;5038435;28;20401;-84
2023/06/26 09:26:12;;;;;;;14.50;6.80;;;25.10;99.90;;;-144.05;45.32;56976.28;5038046;28;20503;-84
2023/06/26 09:28:38;;;;;;;15.73;9.73;;;24.60;99.90;;;-144.05;46.90;56938.03;5018988;28;20105;-81
2023/06/26 09:31:09;;;;;;;12.13;7.07;;;24.20;99.90;;;-144.05;47.41;56931.66;5018914;28;20027;-84
2023/06/26 09:33:38;;;;;;;15.95;8.20;;;24.10;99.90;;;-144.05;46.86;56967.78;5037568;28;20144;-82
2023/06/26 09:36:18;;;;;;;14.35;6.57;;;24.10;99.90;;;-144.05;45.92;56938.03;5038381;28;20085;-84
2023/06/26 09:38:43;;;;;;;10.23;5.65;;;24.40;99.90;;;-144.05;44.10;56959.28;5038348;28;20033;-83
2023/06/26 09:41:09;;;;;;;10.50;6.68;;;25.20;99.90;;;-144.05;43.79;56978.41;5038361;28;20053;-82
2023/06/26 09:43:51;;;;;;;12.45;5.80;;;25.50;99.90;;;-144.05;43.15;56982.66;5023064;28;20049;-82
2023/06/26 09:46:28;;;;;;;14.95;5.70;;;25.40;99.90;;;-144.05;43.18;56946.53;5023649;28;20025;-82
2023/06/26 09:49:11;;;;;;;16.25;5.40;;;25.10;99.90;;;-144.05;44.60;56967.78;5041739;28;20041;-82
2023/06/26 09:51:41;;;;;;;10.68;4.50;;;24.80;99.90;;;-144.05;45.02;56976.28;5041408;28;20026;-82
2023/06/26 09:54:09;;;;;;;12.20;5.13;;;25.40;99.90;;;-144.05;42.39;57010.25;5040326;28;20030;-83
2023/06/26 09:56:36;;;;;;;8.77;4.10;;;26.10;99.90;;;-144.05;41.20;57025.13;5024414;28;20029;-82
2023/06/26 09:59:05;;;;;;;11.75;4.30;;;26.80;99.90;;;-144.05;40.79;57056.97;5024408;28;20036;-84
2023/06/26 10:01:33;;;;;;;10.13;4.80;;;27.10;99.90;;;-144.05;40.13;57065.47;5023216;28;20041;-83
2023/06/26 10:04:00;;;;;;;11.57;4.32;;;26.40;99.90;;;-144.05;42.11;57006.00;5041553;28;20112;-82